Time;durP1;ratioP1;P1;durP2;ratioP2;P2;SDS_P1;SDS_P2;PMS_P1;PMS_P2;Temp;Humidity;BMP_temperature;BMP_pressure;BME280_temperature;BME280_humidity;BME280_pressure;Samples;Min_cycle;Max_cycle;Signal;HPM_P1;HPM_P2
2021/01/04 00:02:12;;;;;;;17.85;10.43;;;;;;;6.37;100.00;100155.44;5073154;28;20228;-68
2021/01/04 00:04:52;;;;;;;17.15;10.15;;;;;;;6.38;100.00;100164.25;5073124;28;20024;-68
2021/01/04 00:07:49;;;;;;;18.13;11.27;;;;;;;6.38;100.00;100158.94;5072847;28;20154;-68
2021/01/04 00:10:30;;;;;;;19.10;10.63;;;;;;;6.37;100.00;100166.09;5071518;28;20098;-68
2021/01/04 00:12:58;;;;;;;18.77;10.00;;;;;;;6.35;100.00;100153.81;5073143;28;20521;-68
2021/01/04 00:15:30;;;;;;;15.85;9.90;;;;;;;6.38;100.00;100161.59;5072786;28;20107;-68
2021/01/04 00:18:14;;;;;;;16.65;10.00;;;;;;;6.35;100.00;100154.69;5072606;28;20194;-68
2021/01/04 00:21:13;;;;;;;15.13;9.70;;;;;;;6.39;100.00;100158.81;5072898;28;20031;-68
2021/01/04 00:24:10;;;;;;;17.95;9.70;;;;;;;6.41;100.00;100156.03;5057689;28;20399;-68
2021/01/04 00:26:59;;;;;;;15.82;9.43;;;;;;;6.42;100.00;100147.94;5063765;28;20049;-67
2021/01/04 00:29:25;;;;;;;17.20;9.85;;;;;;;6.46;100.00;100153.91;5072593;28;20090;-68
2021/01/04 00:32:01;;;;;;;16.67;9.23;;;;;;;6.31;100.00;100125.72;5071933;28;20062;-67
2021/01/04 00:34:44;;;;;;;15.43;9.05;;;;;;;6.48;100.00;100152.00;5072382;28;20036;-68
2021/01/04 00:37:09;;;;;;;15.93;9.27;;;;;;;6.47;100.00;100152.94;5072650;28;20020;-67
2021/01/04 00:39:43;;;;;;;13.55;8.75;;;;;;;6.46;100.00;100162.75;5072486;28;20336;-67
2021/01/04 00:42:27;;;;;;;15.60;9.88;;;;;;;6.50;100.00;100166.03;5072441;28;20034;-68
2021/01/04 00:45:15;;;;;;;14.60;9.20;;;;;;;6.50;100.00;100160.72;5072316;28;20028;-67
2021/01/04 00:48:02;;;;;;;18.85;8.68;;;;;;;6.52;100.00;100156.97;5072435;28;20379;-67
2021/01/04 00:50:43;;;;;;;15.18;8.57;;;;;;;6.54;100.00;100157.72;5071974;28;20024;-67
2021/01/04 00:53:21;;;;;;;14.93;8.85;;;;;;;6.56;100.00;100169.13;5072562;28;20419;-67
2021/01/04 00:56:22;;;;;;;14.73;9.05;;;;;;;6.56;100.00;100158.47;5072030;28;20487;-68
2021/01/04 00:59:00;;;;;;;15.00;8.88;;;;;;;6.58;100.00;100163.69;5070691;28;20483;-68
2021/01/04 01:01:55;;;;;;;14.90;9.18;;;;;;;6.61;100.00;100172.28;5070500;28;20483;-67
2021/01/04 01:04:38;;;;;;;13.40;8.68;;;;;;;6.61;100.00;100177.59;5071656;28;20040;-67
2021/01/04 01:07:04;;;;;;;12.73;8.88;;;;;;;6.61;100.00;100180.25;5071847;28;20831;-68
2021/01/04 01:09:36;;;;;;;14.88;9.20;;;;;;;6.65;100.00;100194.22;5070312;28;20111;-68
2021/01/04 01:12:28;;;;;;;14.48;8.93;;;;;;;6.64;100.00;100188.03;5071698;28;20032;-67
2021/01/04 01:15:18;;;;;;;15.32;8.98;;;;;;;6.65;100.00;100187.06;5071219;28;20053;-67
2021/01/04 01:18:14;;;;;;;16.13;8.65;;;;;;;6.64;100.00;100182.72;5071710;28;20109;-67
2021/01/04 01:20:45;;;;;;;14.23;8.63;;;;;;;6.64;100.00;100188.03;5071643;28;20054;-67
2021/01/04 01:23:12;;;;;;;16.58;9.02;;;;;;;6.68;100.00;100172.69;5071899;28;20025;-67
2021/01/04 01:25:49;;;;;;;13.40;8.73;;;;;;;6.65;100.00;100170.25;5071397;28;20086;-67
2021/01/04 01:28:44;;;;;;;16.77;8.75;;;;;;;6.62;100.00;100165.97;5071352;28;20082;-67
2021/01/04 01:31:23;;;;;;;15.65;9.73;;;;;;;6.63;100.00;100180.16;5063234;28;20047;-67
2021/01/04 01:34:10;;;;;;;16.85;10.02;;;;;;;6.63;100.00;100178.34;5071405;28;20040;-68
2021/01/04 01:37:19;;;;;;;17.80;9.88;;;;;;;6.63;100.00;100159.69;5071053;28;20028;-67
2021/01/04 01:40:03;;;;;;;20.67;10.60;;;;;;;6.64;100.00;100157.84;5051398;28;20044;-68
2021/01/04 01:42:47;;;;;;;17.33;9.45;;;;;;;6.62;100.00;100162.47;5071211;28;20035;-67
2021/01/04 01:45:21;;;;;;;15.85;9.57;;;;;;;6.61;100.00;100156.28;5071137;28;20051;-68
2021/01/04 01:48:04;;;;;;;17.17;10.37;;;;;;;6.62;100.00;100157.16;5071196;28;20066;-68
2021/01/04 01:50:34;;;;;;;14.48;9.57;;;;;;;6.64;100.00;100160.53;5071082;28;20263;-67
2021/01/04 01:53:21;;;;;;;16.70;9.95;;;;;;;6.62;100.00;100157.16;5071104;28;20035;-68
2021/01/04 01:55:57;;;;;;;17.30;10.05;;;;;;;6.64;100.00;100161.38;5070844;28;20085;-67
2021/01/04 01:58:48;;;;;;;17.33;10.20;;;;;;;6.62;100.00;100162.47;5070679;28;20083;-68
2021/01/04 02:01:35;;;;;;;17.27;9.68;;;;;;;6.66;100.00;100156.81;5066899;28;20526;-68
2021/01/04 02:04:09;;;;;;;16.52;9.73;;;;;;;6.68;100.00;100160.19;5070917;28;20032;-68
2021/01/04 02:06:46;;;;;;;15.43;10.02;;;;;;;6.66;100.00;100147.94;5070579;28;20024;-68
2021/01/04 02:09:27;;;;;;;16.73;9.82;;;;;;;6.69;100.00;100158.38;5070824;28;20020;-68
2021/01/04 02:12:15;;;;;;;16.27;9.52;;;;;;;6.74;100.00;100154.41;5070811;28;20032;-67
2021/01/04 02:15:16;;;;;;;16.13;10.15;;;;;;;6.73;100.00;100151.84;5070507;28;20040;-68
2021/01/04 02:17:58;;;;;;;17.48;9.95;;;;;;;6.71;100.00;100145.81;5058324;28;20041;-69
2021/01/04 02:20:51;;;;;;;13.85;9.20;;;;;;;6.76;100.00;100164.94;5070617;28;20395;-69
2021/01/04 02:23:43;;;;;;;17.17;10.73;;;;;;;6.77;100.00;100166.66;5070783;28;20025;-69
2021/01/04 02:26:19;;;;;;;17.42;10.02;;;;;;;6.77;100.00;100158.66;5070531;28;20042;-69
2021/01/04 02:28:58;;;;;;;16.33;10.35;;;;;;;6.78;100.00;100163.88;5070803;28;20118;-70
2021/01/04 02:31:24;;;;;;;19.42;10.48;;;;;;;6.78;100.00;100165.69;5069149;28;20452;-70
2021/01/04 02:33:51;;;;;;;16.63;10.52;;;;;;;6.69;100.00;100142.41;5070791;28;20162;-70
2021/01/04 02:36:17;;;;;;;17.38;10.60;;;;;;;6.64;100.00;100132.06;5070310;28;20024;-69
2021/01/04 02:38:50;;;;;;;16.55;10.85;;;;;;;6.79;100.00;100154.94;5069147;28;20039;-70
2021/01/04 02:41:15;;;;;;;15.40;9.48;;;;;;;6.73;100.00;100134.06;5070262;28;20020;-70
2021/01/04 02:43:41;;;;;;;17.27;10.45;;;;;;;6.74;100.00;100140.25;5070295;28;20031;-70
2021/01/04 02:46:12;;;;;;;19.05;11.07;;;;;;;6.66;100.00;100131.97;5070278;28;20032;-69
2021/01/04 02:49:16;;;;;;;19.42;10.70;;;;;;;6.73;100.00;100151.84;5070398;28;20028;-69
2021/01/04 02:51:48;;;;;;;15.73;10.10;;;;;;;6.71;100.00;100157.31;5070369;28;20426;-68
2021/01/04 02:54:23;;;;;;;16.27;9.57;;;;;;;6.72;100.00;100164.34;5070093;28;20386;-67
2021/01/04 02:57:07;;;;;;;16.92;9.70;;;;;;;6.44;100.00;100108.75;5070359;28;20040;-68
2021/01/04 02:59:58;;;;;;;19.35;10.43;;;;;;;6.68;100.00;100141.53;5068773;28;20020;-67
2021/01/04 03:02:37;;;;;;;18.88;9.45;;;;;;;6.59;100.00;100136.06;5069987;28;20036;-67
2021/01/04 03:05:11;;;;;;;18.77;10.35;;;;;;;6.64;100.00;100147.22;5070141;28;20082;-67
2021/01/04 03:07:37;;;;;;;17.17;10.85;;;;;;;6.56;100.00;100136.28;5070235;28;20056;-67
2021/01/04 03:10:23;;;;;;;16.25;9.57;;;;;;;6.57;100.00;100141.50;5070379;28;20070;-68
2021/01/04 03:13:15;;;;;;;16.02;10.10;;;;;;;6.47;100.00;100121.84;5072856;28;20518;-67
2021/01/04 03:16:21;;;;;;;18.15;10.43;;;;;;;6.53;100.00;100137.38;5062150;28;20044;-67
2021/01/04 03:18:57;;;;;;;16.10;9.63;;;;;;;6.54;100.00;100143.53;5051440;28;20056;-67
2021/01/04 03:21:25;;;;;;;17.58;10.40;;;;;;;6.55;100.00;100146.06;5071259;28;20499;-68
2021/01/04 03:23:52;;;;;;;19.75;11.52;;;;;;;6.51;100.00;100139.28;5073851;28;20494;-70
2021/01/04 03:26:32;;;;;;;20.02;11.27;;;;;;;6.45;100.00;100138.91;5073606;28;20568;-69
2021/01/04 03:28:57;;;;;;;20.85;10.68;;;;;;;6.47;100.00;100147.63;5073739;28;20498;-70
2021/01/04 03:31:23;;;;;;;17.60;10.70;;;;;;;6.21;100.00;100106.94;5073625;28;20047;-69
2021/01/04 03:33:48;;;;;;;16.65;10.52;;;;;;;6.20;100.00;100096.38;5073500;28;20107;-69
2021/01/04 03:36:14;;;;;;;18.75;10.90;;;;;;;6.42;100.00;100147.94;5073673;28;20037;-70
2021/01/04 03:38:40;;;;;;;15.60;10.00;;;;;;;6.41;100.00;100143.59;5073555;28;20059;-69
2021/01/04 03:41:07;;;;;;;19.38;10.82;;;;;;;6.32;100.00;100141.59;5073354;28;20028;-69
2021/01/04 03:43:34;;;;;;;16.48;10.18;;;;;;;6.41;100.00;100164.03;5073372;28;20079;-70
2021/01/04 03:46:00;;;;;;;17.17;10.57;;;;;;;6.30;100.00;100145.34;5073396;28;20025;-69
2021/01/04 03:48:25;;;;;;;17.52;10.85;;;;;;;6.23;100.00;100128.94;5073061;28;20359;-70
2021/01/04 03:50:52;;;;;;;16.52;11.00;;;;;;;6.33;100.00;100148.66;5072183;28;20029;-70
2021/01/04 03:53:17;;;;;;;18.85;10.52;;;;;;;6.20;100.00;100123.00;5073066;28;20019;-70
2021/01/04 03:55:43;;;;;;;16.08;10.00;;;;;;;6.31;100.00;100145.22;5073127;28;20028;-70
2021/01/04 03:58:10;;;;;;;21.27;10.82;;;;;;;6.32;100.00;100140.78;5073190;28;20028;-68
2021/01/04 04:00:35;;;;;;;17.38;10.57;;;;;;;6.27;100.00;100124.25;5072973;28;20020;-68
2021/01/04 04:03:01;;;;;;;18.38;10.75;;;;;;;6.27;100.00;100134.91;5073250;28;20042;-68
2021/01/04 04:05:27;;;;;;;15.93;10.02;;;;;;;6.26;100.00;100142.03;5072290;28;20024;-69
2021/01/04 04:07:52;;;;;;;18.63;10.48;;;;;;;6.23;100.00;100130.78;5072625;28;20032;-69
2021/01/04 04:10:20;;;;;;;19.80;10.82;;;;;;;6.14;100.00;100124.31;5071195;28;20034;-70
2021/01/04 04:12:46;;;;;;;18.00;11.27;;;;;;;6.16;100.00;100141.00;5072532;28;20044;-69
2021/01/04 04:15:14;;;;;;;17.42;10.88;;;;;;;6.13;100.00;100127.91;5072560;28;20379;-70
2021/01/04 04:17:40;;;;;;;17.95;10.70;;;;;;;6.14;100.00;100126.13;5069620;28;20024;-69
2021/01/04 04:20:08;;;;;;;20.23;10.90;;;;;;;6.11;100.00;100118.34;5071078;28;20034;-69
2021/01/04 04:22:34;;;;;;;19.67;10.70;;;;;;;6.07;100.00;100114.22;5071973;28;20405;-70
2021/01/04 04:24:59;;;;;;;18.20;11.63;;;;;;;6.06;100.00;100113.34;5071408;28;20017;-70
2021/01/04 04:27:25;;;;;;;19.35;11.02;;;;;;;6.08;100.00;100115.91;5072101;28;20063;-70
2021/01/04 04:29:50;;;;;;;18.60;11.52;;;;;;;6.00;100.00;100111.13;5071872;28;20028;-70
2021/01/04 04:32:18;;;;;;;19.40;12.20;;;;;;;5.97;100.00;100116.69;5070446;28;20028;-70
2021/01/04 04:34:44;;;;;;;22.02;12.13;;;;;;;5.97;100.00;100113.19;5072119;28;20020;-70
2021/01/04 04:37:09;;;;;;;17.88;11.02;;;;;;;6.02;100.00;100130.53;5071621;28;20082;-70
2021/01/04 04:39:35;;;;;;;21.42;11.85;;;;;;;6.02;100.00;100132.31;5071809;28;20107;-69
2021/01/04 04:42:07;;;;;;;19.60;12.00;;;;;;;5.82;100.00;100096.50;5071248;28;20475;-69
2021/01/04 04:44:41;;;;;;;21.20;11.95;;;;;;;5.96;100.00;100130.97;5071757;28;20024;-70
2021/01/04 04:47:25;;;;;;;;;;;;;;;5.93;100.00;100119.69;5070351;28;20066;-70
2021/01/04 04:50:11;;;;;;;20.00;10.80;;;;;;;5.93;100.00;100123.19;5069814;28;20019;-69
2021/01/04 04:53:25;;;;;;;19.48;10.82;;;;;;;5.91;100.00;100116.28;5069012;28;20119;-70
2021/01/04 04:55:53;;;;;;;19.73;11.90;;;;;;;5.90;100.00;100118.09;5070493;28;20059;-70
2021/01/04 04:58:49;;;;;;;22.23;11.43;;;;;;;5.84;100.00;100120.34;5072254;28;20021;-70
2021/01/04 05:01:27;;;;;;;19.58;11.27;;;;;;;5.84;100.00;100125.69;5071912;28;20028;-70
2021/01/04 05:04:09;;;;;;;19.83;12.20;;;;;;;5.78;100.00;100115.44;5072190;28;20530;-70
2021/01/04 05:06:43;;;;;;;18.88;12.00;;;;;;;5.68;100.00;100120.53;5071644;28;20052;-69
2021/01/04 05:09:08;;;;;;;19.10;12.55;;;;;;;5.67;100.00;100124.16;5072006;28;20103;-70
2021/01/04 05:11:38;;;;;;;19.75;10.93;;;;;;;5.57;100.00;100112.47;5071481;28;20111;-70
2021/01/04 05:14:10;;;;;;;18.75;12.18;;;;;;;5.50;100.00;100115.69;5071465;28;20076;-70
2021/01/04 05:17:03;;;;;;;23.70;13.35;;;;;;;5.42;100.00;100118.88;5071366;28;20020;-70
2021/01/04 05:20:22;;;;;;;22.08;13.10;;;;;;;5.29;100.00;100115.38;5070284;28;20058;-70
2021/01/04 05:23:18;;;;;;;22.65;12.90;;;;;;;5.18;100.00;100109.09;5068413;28;20040;-68
2021/01/04 05:26:25;;;;;;;17.80;12.10;;;;;;;5.09;100.00;100121.22;5070081;28;20513;-68
2021/01/04 05:29:08;;;;;;;22.25;13.10;;;;;;;5.01;100.00;100117.38;5070330;28;20043;-68
2021/01/04 05:31:52;;;;;;;26.20;14.23;;;;;;;4.96;100.00;100125.66;5071271;28;20020;-68
2021/01/04 05:34:38;;;;;;;26.40;13.20;;;;;;;4.92;100.00;100125.97;5071216;28;20028;-67
2021/01/04 05:37:41;;;;;;;23.52;13.18;;;;;;;4.88;100.00;100132.44;5069728;28;20028;-68
2021/01/04 05:40:24;;;;;;;45.70;18.40;;;;;;;4.83;100.00;100135.41;5071031;28;20032;-68
2021/01/04 05:43:09;;;;;;;38.22;17.02;;;;;;;4.74;100.00;100128.06;5071238;28;20036;-68
2021/01/04 05:45:52;;;;;;;37.35;17.27;;;;;;;4.66;100.00;100133.91;5071012;28;20502;-68
2021/01/04 05:48:42;;;;;;;35.63;17.15;;;;;;;4.39;100.00;100108.34;5070959;28;20025;-68
2021/01/04 05:51:12;;;;;;;27.75;14.60;;;;;;;4.57;100.00;100139.81;5070217;28;20024;-68
2021/01/04 05:53:39;;;;;;;28.05;13.93;;;;;;;4.56;100.00;100150.53;5069574;28;20114;-67
2021/01/04 05:56:05;;;;;;;30.10;14.23;;;;;;;4.56;100.00;100145.22;5071080;28;20037;-68
2021/01/04 05:58:35;;;;;;;28.40;16.08;;;;;;;4.62;100.00;100155.44;5070657;28;20050;-68
2021/01/04 06:01:13;;;;;;;29.00;15.70;;;;;;;4.47;100.00;100129.91;5070637;28;20032;-67
2021/01/04 06:03:38;;;;;;;28.00;14.98;;;;;;;4.47;100.00;100130.75;5069633;28;20028;-68
2021/01/04 06:06:19;;;;;;;33.15;17.33;;;;;;;4.67;100.00;100151.53;5069825;28;20121;-68
2021/01/04 06:08:45;;;;;;;34.75;18.58;;;;;;;4.30;100.00;100093.00;5050444;28;20037;-68
2021/01/04 06:11:13;;;;;;;32.13;16.80;;;;;;;4.50;100.00;100135.00;5050784;28;20040;-68
2021/01/04 06:13:43;;;;;;;33.10;16.45;;;;;;;4.51;100.00;100140.22;5050301;28;20049;-67
2021/01/04 06:16:17;;;;;;;32.67;18.13;;;;;;;4.68;100.00;100178.97;5065739;28;20035;-68
2021/01/04 06:18:50;;;;;;;39.10;20.00;;;;;;;4.66;100.00;100179.06;5070205;28;20024;-68
2021/01/04 06:21:30;;;;;;;44.13;19.05;;;;;;;4.63;100.00;100192.53;5070472;28;20035;-68
2021/01/04 06:24:01;;;;;;;37.58;18.75;;;;;;;4.65;100.00;100205.72;5070539;28;20115;-68
2021/01/04 06:26:26;;;;;;;47.35;20.10;;;;;;;4.58;100.00;100196.44;5070586;28;20491;-68
2021/01/04 06:29:07;;;;;;;47.63;21.25;;;;;;;4.58;100.00;100193.78;5070059;28;20081;-68
2021/01/04 06:31:52;;;;;;;48.92;22.08;;;;;;;4.47;100.00;100177.69;5050348;28;20033;-68
2021/01/04 06:34:25;;;;;;;53.00;22.33;;;;;;;4.59;100.00;100192.84;5050370;28;20029;-68
2021/01/04 06:36:56;;;;;;;44.13;21.02;;;;;;;4.56;100.00;100187.72;5050586;28;20021;-68
2021/01/04 06:39:28;;;;;;;44.90;21.23;;;;;;;4.55;100.00;100180.72;5050227;28;20025;-69
2021/01/04 06:41:57;;;;;;;36.47;17.67;;;;;;;4.35;100.00;100150.13;5057511;28;20058;-67
2021/01/04 06:44:27;;;;;;;30.25;16.83;;;;;;;4.53;100.00;100198.53;5070773;28;20028;-68
2021/01/04 06:47:11;;;;;;;34.55;19.85;;;;;;;4.52;100.00;100202.16;5072081;28;20025;-68
2021/01/04 06:49:46;;;;;;;36.05;18.20;;;;;;;4.50;100.00;100198.75;5073781;28;20035;-68
2021/01/04 06:52:43;;;;;;;54.42;21.02;;;;;;;4.45;100.00;100203.50;5074291;28;20032;-68
2021/01/04 06:55:23;;;;;;;42.15;19.33;;;;;;;4.41;100.00;100207.28;5073661;28;20024;-68
2021/01/04 06:57:51;;;;;;;34.20;17.98;;;;;;;4.41;100.00;100207.28;5074389;28;20028;-68
2021/01/04 07:00:44;;;;;;;48.90;20.45;;;;;;;4.27;100.00;100196.72;5074317;28;20430;-68
2021/01/04 07:03:28;;;;;;;38.00;17.52;;;;;;;4.21;100.00;100205.94;5074373;28;20100;-68
2021/01/04 07:05:56;;;;;;;47.15;17.48;;;;;;;4.11;100.00;100211.91;5072939;28;20048;-68
2021/01/04 07:08:35;;;;;;;31.55;16.75;;;;;;;4.04;100.00;100203.50;5074058;28;20073;-68
2021/01/04 07:11:31;;;;;;;25.55;15.20;;;;;;;3.96;100.00;100205.75;5074240;28;20500;-70
2021/01/04 07:14:19;;;;;;;31.00;16.23;;;;;;;3.90;100.00;100208.78;5072151;28;20041;-69
2021/01/04 07:16:47;;;;;;;29.27;16.58;;;;;;;3.88;100.00;100209.84;5070255;28;20398;-68
2021/01/04 07:19:40;;;;;;;29.75;16.13;;;;;;;3.82;100.00;100205.78;5072957;28;20036;-68
2021/01/04 07:22:34;;;;;;;41.05;18.08;;;;;;;3.81;100.00;100219.97;5054141;28;20075;-71
2021/01/04 07:25:05;;;;;;;34.35;17.50;;;;;;;3.77;100.00;100207.84;5067769;28;20463;-70
2021/01/04 07:27:54;;;;;;;33.75;17.70;;;;;;;3.78;100.00;100216.69;5072742;28;20029;-70
2021/01/04 07:30:44;;;;;;;32.67;19.33;;;;;;;3.76;100.00;100222.06;5070846;28;20023;-70
2021/01/04 07:33:25;;;;;;;40.53;21.08;;;;;;;3.69;100.00;100223.41;5072584;28;20035;-71
2021/01/04 07:35:57;;;;;;;37.10;19.52;;;;;;;3.69;100.00;100236.66;5074368;28;20035;-71
2021/01/04 07:38:37;;;;;;;35.17;20.00;;;;;;;3.66;100.00;100226.25;5073476;28;20382;-70
2021/01/04 07:41:29;;;;;;;35.30;19.00;;;;;;;3.67;100.00;100242.97;5073426;28;20477;-71
2021/01/04 07:44:25;;;;;;;35.47;18.63;;;;;;;3.65;100.00;100231.63;5073635;28;20390;-70
2021/01/04 07:47:08;;;;;;;33.50;17.83;;;;;;;3.70;100.00;100240.16;5073557;28;20024;-71
2021/01/04 07:49:52;;;;;;;33.43;17.67;;;;;;;3.69;100.00;100239.31;5073370;28;20033;-70
2021/01/04 07:52:54;;;;;;;28.58;17.10;;;;;;;3.67;100.00;100235.03;5073195;28;20476;-68
2021/01/04 07:56:01;;;;;;;35.03;16.60;;;;;;;3.68;100.00;100240.22;5073528;28;20013;-70
2021/01/04 07:58:54;;;;;;;27.98;16.88;;;;;;;3.54;100.00;100212.84;5048810;28;20408;-70
2021/01/04 08:01:44;;;;;;;30.23;16.52;;;;;;;3.69;100.00;100231.34;5072802;28;20449;-70
2021/01/04 08:04:41;;;;;;;33.92;17.38;;;;;;;3.53;100.00;100200.56;5073065;28;20093;-71
2021/01/04 08:07:30;;;;;;;29.67;17.75;;;;;;;3.77;100.00;100233.53;5073088;28;20016;-70
2021/01/04 08:10:07;;;;;;;40.88;20.48;;;;;;;3.77;100.00;100242.34;5073144;28;20425;-70
2021/01/04 08:13:11;;;;;;;38.47;20.77;;;;;;;3.80;100.00;100233.31;5072621;28;20403;-70
2021/01/04 08:15:53;;;;;;;35.90;19.98;;;;;;;3.82;100.00;100234.09;5067589;28;20415;-71
2021/01/04 08:18:22;;;;;;;46.00;20.13;;;;;;;3.65;100.00;100197.16;5073003;28;20032;-71
2021/01/04 08:20:50;;;;;;;35.85;19.88;;;;;;;3.85;100.00;100233.91;5072612;28;20024;-71
2021/01/04 08:23:38;;;;;;;36.58;19.55;;;;;;;3.90;100.00;100237.16;5072790;28;20032;-71
2021/01/04 08:26:15;;;;;;;35.97;19.20;;;;;;;3.90;100.00;100234.50;5071385;28;20040;-70
2021/01/04 08:28:47;;;;;;;37.92;20.42;;;;;;;3.94;100.00;100233.34;5071017;28;20020;-71
2021/01/04 08:31:34;;;;;;;37.10;20.85;;;;;;;3.94;100.00;100223.56;5072603;28;20051;-70
2021/01/04 08:34:04;;;;;;;45.38;21.70;;;;;;;3.98;100.00;100224.25;5072263;28;20029;-69
2021/01/04 08:36:31;;;;;;;34.90;20.65;;;;;;;4.00;100.00;100225.00;5072306;28;20405;-68
2021/01/04 08:39:23;;;;;;;35.60;19.33;;;;;;;4.03;100.00;100230.13;5070938;28;20020;-68
2021/01/04 08:42:10;;;;;;;39.67;20.58;;;;;;;3.92;100.00;100201.59;5063324;28;20131;-68
2021/01/04 08:44:36;;;;;;;44.65;19.63;;;;;;;3.98;100.00;100210.97;5071810;28;20403;-68
2021/01/04 08:47:19;;;;;;;41.78;22.67;;;;;;;4.11;100.00;100233.13;5072204;28;20024;-68
2021/01/04 08:49:47;;;;;;;51.72;23.60;;;;;;;4.06;100.00;100219.28;5070867;28;20233;-69
2021/01/04 08:52:22;;;;;;;49.80;22.55;;;;;;;4.02;100.00;100204.53;5072089;28;20050;-68
2021/01/04 08:55:01;;;;;;;52.65;24.05;;;;;;;4.19;100.00;100225.53;5071716;28;20507;-68
2021/01/04 08:57:46;;;;;;;49.72;24.70;;;;;;;4.29;100.00;100229.34;5071769;28;20033;-68
2021/01/04 09:00:27;;;;;;;60.60;27.55;;;;;;;4.29;100.00;100211.59;5071581;28;20048;-69
2021/01/04 09:02:54;;;;;;;56.45;28.58;;;;;;;4.44;100.00;100226.53;5072263;28;20032;-68
2021/01/04 09:05:38;;;;;;;60.63;28.40;;;;;;;4.53;100.00;100231.28;5071766;28;20029;-68
2021/01/04 09:08:06;;;;;;;54.92;25.73;;;;;;;4.62;100.00;100230.66;5071819;28;20023;-70
2021/01/04 09:10:45;;;;;;;59.33;26.10;;;;;;;4.68;100.00;100227.59;5071151;28;20033;-70
2021/01/04 09:13:23;;;;;;;51.65;24.15;;;;;;;4.75;100.00;100225.41;5071573;28;20047;-70
2021/01/04 09:15:51;;;;;;;50.28;23.20;;;;;;;4.78;100.00;100212.75;5071705;28;20487;-70
2021/01/04 09:18:41;;;;;;;55.70;25.00;;;;;;;4.91;100.00;100219.94;5071549;28;20024;-70
2021/01/04 09:21:27;;;;;;;48.22;22.30;;;;;;;4.91;100.00;100223.44;5071529;28;20024;-70
2021/01/04 09:23:52;;;;;;;46.38;22.52;;;;;;;4.95;100.00;100214.31;5067082;28;20402;-70
2021/01/04 09:26:34;;;;;;;44.33;22.75;;;;;;;5.16;100.00;100222.66;5071492;28;20029;-70
2021/01/04 09:29:11;;;;;;;51.58;24.85;;;;;;;5.18;100.00;100215.41;5071406;28;20071;-70
2021/01/04 09:31:49;;;;;;;47.75;22.50;;;;;;;5.26;100.00;100210.44;5069954;28;20051;-71
2021/01/04 09:34:16;;;;;;;55.13;24.23;;;;;;;5.36;100.00;100219.50;5071144;28;20070;-70
2021/01/04 09:36:41;;;;;;;56.03;24.80;;;;;;;5.41;100.00;100214.69;5070965;28;20033;-70
2021/01/04 09:39:10;;;;;;;52.78;24.17;;;;;;;5.43;100.00;100211.00;5071063;28;20369;-70
2021/01/04 09:41:36;;;;;;;53.97;24.95;;;;;;;5.49;100.00;100209.72;5070928;28;20024;-70
2021/01/04 09:44:10;;;;;;;57.85;26.27;;;;;;;5.54;100.00;100202.25;5071070;28;20028;-70
2021/01/04 09:46:49;;;;;;;52.22;24.98;;;;;;;5.57;100.00;100194.94;5070976;28;20028;-71
2021/01/04 09:49:23;;;;;;;45.78;22.50;;;;;;;5.61;100.00;100192.94;5070955;28;20021;-70
2021/01/04 09:52:21;;;;;;;49.03;24.75;;;;;;;5.63;100.00;100191.84;5070958;28;20154;-70
2021/01/04 09:55:02;;;;;;;49.17;24.80;;;;;;;5.67;100.00;100188.03;5061984;28;20043;-70
2021/01/04 09:57:31;;;;;;;49.72;23.02;;;;;;;5.72;100.00;100175.25;5069368;28;20079;-70
2021/01/04 09:59:56;;;;;;;49.38;23.55;;;;;;;5.81;100.00;100179.06;5069706;28;20047;-71
2021/01/04 10:02:29;;;;;;;47.92;24.23;;;;;;;5.84;100.00;100163.75;5070795;28;20032;-70
2021/01/04 10:05:10;;;;;;;56.80;26.70;;;;;;;5.94;100.00;100164.81;5070996;28;20078;-71
2021/01/04 10:07:37;;;;;;;54.13;27.55;;;;;;;5.93;100.00;100146.31;5070437;28;20078;-68
2021/01/04 10:10:09;;;;;;;67.43;31.52;;;;;;;6.14;100.00;100161.59;5069475;28;20035;-68
2021/01/04 10:12:34;;;;;;;45.65;23.17;;;;;;;6.17;100.00;100150.72;5070454;28;20036;-68
2021/01/04 10:15:03;;;;;;;43.70;23.25;;;;;;;6.24;100.00;100157.31;5069663;28;20052;-68
2021/01/04 10:17:59;;;;;;;35.70;20.70;;;;;;;6.29;100.00;100160.47;5070034;28;20027;-68
2021/01/04 10:20:33;;;;;;;41.13;21.30;;;;;;;6.28;100.00;100144.59;5070294;28;20361;-69
2021/01/04 10:23:00;;;;;;;43.65;21.52;;;;;;;6.33;100.00;100139.78;5070518;28;20016;-70
2021/01/04 10:25:31;;;;;;;54.85;24.77;;;;;;;6.21;100.00;100112.25;5070506;28;20047;-70
2021/01/04 10:28:02;;;;;;;43.35;23.63;;;;;;;6.43;100.00;100131.03;5070391;28;20020;-70
2021/01/04 10:30:28;;;;;;;42.95;23.40;;;;;;;6.50;100.00;100132.25;5065335;28;20041;-68
2021/01/04 10:33:27;;;;;;;46.78;23.75;;;;;;;6.57;100.00;100119.31;5070065;28;20029;-68
2021/01/04 10:36:18;;;;;;;46.75;24.80;;;;;;;6.40;100.00;100077.13;5070167;28;20044;-68
2021/01/04 10:38:48;;;;;;;49.35;25.45;;;;;;;6.54;100.00;100085.78;5069588;28;20063;-69
2021/01/04 10:41:17;;;;;;;50.70;27.25;;;;;;;6.79;100.00;100116.75;5069492;28;20024;-69
2021/01/04 10:43:47;;;;;;;47.78;26.50;;;;;;;6.80;100.00;100111.31;5069749;28;20032;-69
2021/01/04 10:46:27;;;;;;;52.55;25.95;;;;;;;6.84;100.00;100112.78;5070248;28;20051;-68
2021/01/04 10:49:02;;;;;;;56.25;27.25;;;;;;;6.67;100.00;100073.22;5070643;28;20028;-69
2021/01/04 10:51:30;;;;;;;58.67;29.33;;;;;;;6.87;100.00;100104.53;5070104;28;20037;-68
2021/01/04 10:53:56;;;;;;;68.35;31.70;;;;;;;6.90;100.00;100098.97;5070383;28;20521;-68
2021/01/04 10:56:43;;;;;;;60.40;28.92;;;;;;;6.90;100.00;100100.78;5068810;28;20328;-69
2021/01/04 10:59:18;;;;;;;55.85;28.35;;;;;;;6.90;100.00;100084.78;5069508;28;20039;-68
2021/01/04 11:01:47;;;;;;;50.97;27.73;;;;;;;6.89;100.00;100073.31;5067960;28;20032;-68
2021/01/04 11:04:16;;;;;;;61.15;29.95;;;;;;;6.90;100.00;100075.00;5057965;28;20044;-70
2021/01/04 11:06:44;;;;;;;66.05;33.08;;;;;;;6.90;100.00;100068.78;5062051;28;20028;-70
2021/01/04 11:09:25;;;;;;;72.10;35.85;;;;;;;6.91;100.00;100059.84;5054086;28;20057;-70
2021/01/04 11:12:05;;;;;;;69.32;33.20;;;;;;;6.91;100.00;100059.84;5054835;28;20041;-70
2021/01/04 11:14:31;;;;;;;63.40;30.08;;;;;;;6.94;100.00;100060.44;5061670;28;20037;-68
2021/01/04 11:17:07;;;;;;;56.08;28.65;;;;;;;6.80;100.00;100022.50;5061678;28;20521;-69
2021/01/04 11:19:35;;;;;;;51.30;28.20;;;;;;;6.97;100.00;100041.56;5061282;28;20119;-69
2021/01/04 11:22:12;;;;;;;61.47;31.73;;;;;;;7.02;100.00;100037.72;5061826;28;20032;-69
2021/01/04 11:24:38;;;;;;;66.90;34.83;;;;;;;7.03;100.00;100043.75;5067026;28;20040;-69
2021/01/04 11:27:04;;;;;;;97.68;45.97;;;;;;;7.07;100.00;100043.50;5060583;28;20021;-69
2021/01/04 11:29:29;;;;;;;85.07;40.30;;;;;;;7.02;100.00;100029.72;5060090;28;20036;-69
2021/01/04 11:31:55;;;;;;;72.22;35.83;;;;;;;7.00;100.00;100024.50;5053577;28;20071;-68
2021/01/04 11:34:20;;;;;;;64.97;33.17;;;;;;;7.13;100.00;100048.38;5067924;28;20020;-68
2021/01/04 11:36:45;;;;;;;65.60;32.97;;;;;;;7.14;100.00;100042.06;5068480;28;20027;-68
2021/01/04 11:39:11;;;;;;;60.13;31.30;;;;;;;7.15;100.00;100041.94;5057151;28;20029;-68
2021/01/04 11:41:37;;;;;;;53.33;27.52;;;;;;;7.18;100.00;100038.19;5052324;28;20068;-68
2021/01/04 11:44:02;;;;;;;54.20;27.63;;;;;;;7.19;100.00;100029.22;5053566;28;20056;-69
2021/01/04 11:46:28;;;;;;;49.13;27.48;;;;;;;7.19;100.00;100034.56;5053345;28;20056;-68
2021/01/04 11:48:53;;;;;;;50.63;27.15;;;;;;;7.18;100.00;100017.69;5053395;28;20463;-68
2021/01/04 11:51:20;;;;;;;58.88;30.50;;;;;;;7.20;100.00;100026.44;5053234;28;20644;-68
2021/01/04 11:53:50;;;;;;;59.30;29.27;;;;;;;7.23;100.00;100015.53;5053021;28;20021;-71
2021/01/04 11:56:17;;;;;;;50.65;26.27;;;;;;;7.17;100.00;100001.81;5052943;28;20029;-68
2021/01/04 11:58:45;;;;;;;52.00;28.05;;;;;;;7.14;100.00;99996.72;5053026;28;20095;-68